Time;durP1;ratioP1;P1;durP2;ratioP2;P2;SDS_P1;SDS_P2;PMS_P1;PMS_P2;Temp;Humidity;BMP_temperature;BMP_pressure;BME280_temperature;BME280_humidity;BME280_pressure;Samples;Min_cycle;Max_cycle;Signal;HPM_P1;HPM_P2
2021/12/16 00:06:01;;;;;;;;;;;5.60;99.90;;;;;;5033913;28;20441;-78
2021/12/16 00:08:40;;;;;;;;;;;5.60;99.90;;;;;;5046029;28;19931;-77
2021/12/16 00:32:48;;;;;;;;;;;5.60;99.90;;;;;;5050237;28;19940;-78
2021/12/16 00:35:16;;;;;;;;;;;5.50;99.90;;;;;;5045839;28;19925;-79
2021/12/16 00:37:43;;;;;;;;;;;5.60;99.90;;;;;;5047097;28;20015;-78
2021/12/16 00:40:11;;;;;;;;;;;5.50;99.90;;;;;;5047044;28;19931;-79
2021/12/16 00:42:55;;;;;;;;;;;5.50;99.90;;;;;;5046689;28;19925;-78
2021/12/16 00:47:56;;;;;;;;;;;5.50;99.90;;;;;;5044386;28;19925;-78
2021/12/16 00:55:51;;;;;;;;;;;5.50;99.90;;;;;;5040742;28;19931;-78
2021/12/16 00:58:21;;;;;;;;;;;5.50;99.90;;;;;;5044552;28;20023;-78
2021/12/16 01:00:56;;;;;;;;;;;5.50;99.90;;;;;;5047159;28;20103;-78
2021/12/16 01:03:37;;;;;;;;;;;5.50;99.90;;;;;;5046564;28;19978;-78
2021/12/16 01:57:25;;;;;;;;;;;5.40;99.90;;;;;;5043617;28;19924;-79
2021/12/16 02:00:06;;;;;;;;;;;5.40;99.90;;;;;;5051046;28;19928;-79
2021/12/16 02:02:48;;;;;;;;;;;5.40;99.90;;;;;;5042611;28;19987;-79
2021/12/16 02:08:12;;;;;;;;;;;5.40;99.90;;;;;;5056361;28;19933;-80
2021/12/16 02:10:46;;;;;;;;;;;5.40;99.90;;;;;;5044880;28;19931;-80
2021/12/16 02:37:22;;;;;;;;;;;5.40;99.90;;;;;;5046288;28;20020;-79
2021/12/16 02:39:49;;;;;;;;;;;5.40;99.90;;;;;;5049883;28;19935;-79
2021/12/16 02:42:20;;;;;;;;;;;5.30;99.90;;;;;;5049396;28;19929;-79
2021/12/16 02:50:20;;;;;;;;;;;5.30;99.90;;;;;;5047911;28;20272;-78
2021/12/16 02:52:47;;;;;;;;;;;5.30;99.90;;;;;;5046427;28;19928;-80
2021/12/16 02:55:15;;;;;;;;;;;5.30;99.90;;;;;;5047051;28;20011;-79
2021/12/16 02:57:50;;;;;;;;;;;5.30;99.90;;;;;;5047676;28;19925;-79
2021/12/16 03:00:18;;;;;;;;;;;5.30;99.90;;;;;;5041544;28;19924;-79
2021/12/16 03:02:47;;;;;;;;;;;5.30;99.90;;;;;;5045588;28;19925;-79
2021/12/16 03:05:15;;;;;;;;;;;5.30;99.90;;;;;;5049733;28;19924;-78
2021/12/16 03:07:41;;;;;;;;;;;5.30;99.90;;;;;;5047249;28;20016;-78
2021/12/16 03:13:12;;;;;;;;;;;5.30;99.90;;;;;;5045543;28;20015;-78
2021/12/16 03:15:56;;;;;;;;;;;5.30;99.90;;;;;;5048564;28;19983;-78
2021/12/16 03:18:40;;;;;;;;;;;5.30;99.90;;;;;;5051402;28;19944;-78
2021/12/16 03:21:18;;;;;;;;;;;5.30;99.90;;;;;;5050941;28;19933;-78
2021/12/16 03:26:51;;;;;;;;;;;5.30;99.90;;;;;;5052538;28;19935;-77
2021/12/16 03:35:03;;;;;;;;;;;5.30;99.90;;;;;;5048503;28;19931;-78
2021/12/16 03:37:21;;;;;;;;;;;5.30;99.90;;;;;;5049585;28;19925;-79
2021/12/16 03:39:53;;;;;;;;;;;5.30;99.90;;;;;;5044578;28;19935;-79
2021/12/16 03:42:20;;;;;;;;;;;5.20;99.90;;;;;;5044900;28;20259;-79
2021/12/16 03:44:59;;;;;;;;;;;5.30;99.90;;;;;;5040974;28;19931;-78
2021/12/16 03:47:29;;;;;;;;;;;5.30;99.90;;;;;;5041899;28;19925;-79
2021/12/16 03:49:56;;;;;;;;;;;5.30;99.90;;;;;;5047583;28;19925;-79
2021/12/16 03:52:23;;;;;;;;;;;5.30;99.90;;;;;;5046081;28;19932;-78
2021/12/16 03:54:51;;;;;;;;;;;5.30;99.90;;;;;;5046247;28;19935;-78
2021/12/16 03:57:22;;;;;;;;;;;5.20;99.90;;;;;;5044112;28;19929;-78
2021/12/16 03:59:49;;;;;;;;;;;5.40;99.90;;;;;;5045788;28;19928;-78
2021/12/16 04:02:20;;;;;;;;;;;5.30;99.90;;;;;;5046025;28;19931;-78
2021/12/16 04:04:47;;;;;;;;;;;5.30;99.90;;;;;;5043689;28;19925;-78
2021/12/16 04:07:14;;;;;;;;;;;5.30;99.90;;;;;;5046872;28;19928;-78
2021/12/16 04:09:41;;;;;;;;;;;5.30;99.90;;;;;;5045753;28;19932;-78
2021/12/16 04:12:11;;;;;;;;;;;5.40;99.90;;;;;;5042453;28;19925;-78
2021/12/16 04:14:40;;;;;;;;;;;5.30;99.90;;;;;;5045591;28;20068;-78
2021/12/16 04:17:08;;;;;;;;;;;5.30;99.90;;;;;;5044814;28;19925;-78
2021/12/16 04:19:35;;;;;;;;;;;5.20;99.90;;;;;;5047570;28;20415;-78
2021/12/16 04:22:06;;;;;;;;;;;5.20;99.90;;;;;;5047234;28;19931;-78
2021/12/16 04:24:33;;;;;;;;;;;5.20;99.90;;;;;;5046255;28;19925;-78
2021/12/16 04:27:00;;;;;;;;;;;5.20;99.90;;;;;;5046737;28;19941;-78
2021/12/16 04:29:27;;;;;;;;;;;5.20;99.90;;;;;;5048295;28;19978;-78
2021/12/16 04:31:55;;;;;;;;;;;5.20;99.90;;;;;;5044412;28;19931;-78
2021/12/16 04:34:22;;;;;;;;;;;5.20;99.90;;;;;;5043193;28;20102;-78
2021/12/16 04:36:49;;;;;;;;;;;5.20;99.90;;;;;;5061779;28;19924;-79
2021/12/16 04:39:18;;;;;;;;;;;5.20;99.90;;;;;;5047658;28;19925;-78
2021/12/16 04:41:47;;;;;;;;;;;5.20;99.90;;;;;;5047817;28;19937;-78
2021/12/16 04:44:15;;;;;;;;;;;5.20;99.90;;;;;;5046663;28;20410;-78
2021/12/16 04:46:42;;;;;;;;;;;5.20;99.90;;;;;;5041971;28;19943;-78
2021/12/16 04:49:09;;;;;;;;;;;5.10;99.90;;;;;;5046231;28;19925;-78
2021/12/16 04:51:38;;;;;;;;;;;5.10;99.90;;;;;;5045903;28;20411;-78
2021/12/16 04:54:06;;;;;;;;;;;5.20;99.90;;;;;;5044108;28;19940;-78
2021/12/16 04:56:33;;;;;;;;;;;5.10;99.90;;;;;;5046443;28;19932;-78
2021/12/16 04:59:08;;;;;;;;;;;5.10;99.90;;;;;;5059667;28;19972;-78
2021/12/16 05:01:35;;;;;;;;;;;5.10;99.90;;;;;;5045949;28;19932;-78
2021/12/16 05:04:02;;;;;;;;;;;5.10;99.90;;;;;;5060732;28;19976;-78
2021/12/16 05:06:29;;;;;;;;;;;5.10;99.90;;;;;;5043736;28;20402;-78
2021/12/16 05:08:58;;;;;;;;;;;5.10;99.90;;;;;;5047307;28;19936;-78
2021/12/16 05:11:26;;;;;;;;;;;5.10;99.90;;;;;;5049326;28;19931;-78
2021/12/16 05:13:53;;;;;;;;;;;5.10;99.90;;;;;;5048534;28;19933;-78
2021/12/16 05:16:20;;;;;;;;;;;5.10;99.90;;;;;;5050701;28;19928;-78
2021/12/16 05:18:46;;;;;;;;;;;5.00;99.90;;;;;;5063372;28;19925;-78
2021/12/16 05:21:38;;;;;;;;;;;5.00;99.90;;;;;;5049934;28;19928;-78
2021/12/16 05:26:49;;;;;;;;;;;5.00;99.90;;;;;;5051384;28;20016;-77
2021/12/16 05:29:16;;;;;;;;;;;5.00;99.90;;;;;;5050281;28;19925;-78
2021/12/16 05:31:43;;;;;;;;;;;5.00;99.90;;;;;;5047961;28;19925;-78
2021/12/16 05:34:09;;;;;;;;;;;4.90;99.90;;;;;;5049151;28;20050;-77
2021/12/16 05:36:36;;;;;;;;;;;4.90;99.90;;;;;;5062208;28;19924;-78
2021/12/16 05:39:04;;;;;;;;;;;4.90;99.90;;;;;;5045701;28;19939;-78
2021/12/16 05:41:33;;;;;;;;;;;4.90;99.90;;;;;;5049993;28;20011;-78
2021/12/16 05:44:00;;;;;;;;;;;4.90;99.90;;;;;;5048751;28;19928;-78
2021/12/16 05:46:27;;;;;;;;;;;4.90;99.90;;;;;;5049441;28;20217;-78
2021/12/16 05:48:54;;;;;;;;;;;4.90;99.90;;;;;;5043977;28;19996;-78
2021/12/16 05:51:27;;;;;;;;;;;4.80;99.90;;;;;;5050254;28;20028;-78
2021/12/16 05:53:54;;;;;;;;;;;4.80;99.90;;;;;;5048262;28;19935;-78
2021/12/16 05:56:21;;;;;;;;;;;4.80;99.90;;;;;;5050931;28;20031;-78
2021/12/16 05:58:51;;;;;;;;;;;4.70;99.90;;;;;;5048464;28;20023;-78
2021/12/16 06:01:21;;;;;;;;;;;4.70;99.90;;;;;;5049472;28;19931;-78
2021/12/16 06:03:48;;;;;;;;;;;4.70;99.90;;;;;;5049161;28;19936;-78
2021/12/16 06:06:16;;;;;;;;;;;4.80;99.90;;;;;;5043259;28;19929;-78
2021/12/16 06:08:44;;;;;;;;;;;4.80;99.90;;;;;;5044225;28;19959;-78
2021/12/16 06:11:18;;;;;;;;;;;4.80;99.90;;;;;;5041915;28;19929;-78
2021/12/16 06:14:11;;;;;;;;;;;4.80;99.90;;;;;;5047388;28;21004;-77
2021/12/16 06:22:35;;;;;;;;;;;4.80;99.90;;;;;;5041036;28;19988;-78
2021/12/16 06:27:51;;;;;;;;;;;4.90;99.90;;;;;;5048217;28;19931;-78
2021/12/16 06:30:20;;;;;;;;;;;5.00;99.90;;;;;;5048718;28;19924;-78
2021/12/16 06:32:47;;;;;;;;;;;5.00;99.90;;;;;;5048010;28;19924;-78
2021/12/16 06:35:15;;;;;;;;;;;5.00;99.90;;;;;;5047198;28;19964;-78
2021/12/16 06:37:42;;;;;;;;;;;5.00;99.90;;;;;;5051257;28;20399;-78
2021/12/16 06:40:10;;;;;;;;;;;5.00;99.90;;;;;;5044507;28;19967;-78
2021/12/16 06:42:40;;;;;;;;;;;5.00;99.90;;;;;;5039956;28;19947;-78
2021/12/16 06:45:12;;;;;;;;;;;5.00;99.90;;;;;;5044491;28;20193;-78
2021/12/16 06:47:58;;;;;;;;;;;4.90;99.90;;;;;;5047368;28;19932;-78
2021/12/16 06:50:44;;;;;;;;;;;4.90;99.90;;;;;;5048771;28;19925;-78
2021/12/16 06:53:19;;;;;;;;;;;4.90;99.90;;;;;;5047647;28;20012;-78
2021/12/16 06:56:12;;;;;;;;;;;4.90;99.90;;;;;;5046954;28;19925;-78
2021/12/16 06:58:40;;;;;;;;;;;4.90;99.90;;;;;;5046854;28;19963;-78
2021/12/16 07:04:18;;;;;;;;;;;4.90;99.90;;;;;;5041293;28;20477;-78
2021/12/16 07:06:45;;;;;;;;;;;4.90;99.90;;;;;;5041873;28;20387;-78
2021/12/16 07:09:15;;;;;;;;;;;4.90;99.90;;;;;;5046966;28;20413;-78
2021/12/16 07:11:43;;;;;;;;;;;4.90;99.90;;;;;;5046650;28;20023;-78
2021/12/16 07:14:14;;;;;;;;;;;4.90;99.90;;;;;;5047482;28;20011;-78
2021/12/16 07:16:42;;;;;;;;;;;4.90;99.90;;;;;;5047893;28;19983;-78
2021/12/16 07:19:09;;;;;;;;;;;4.90;99.90;;;;;;5046260;28;19924;-78
2021/12/16 07:21:37;;;;;;;;;;;4.90;99.90;;;;;;5048478;28;19925;-78
2021/12/16 07:24:10;;;;;;;;;;;5.00;99.90;;;;;;5049164;28;19925;-78
2021/12/16 07:26:36;;;;;;;;;;;5.00;99.90;;;;;;5042338;28;19960;-78
2021/12/16 07:29:04;;;;;;;;;;;5.00;99.90;;;;;;5058807;28;20306;-78
2021/12/16 07:31:33;;;;;;;;;;;5.00;99.90;;;;;;5047137;28;19924;-78
2021/12/16 07:34:00;;;;;;;;;;;4.90;99.90;;;;;;5035440;28;20380;-78
2021/12/16 07:36:28;;;;;;;;;;;4.90;99.90;;;;;;5043244;28;19924;-78
2021/12/16 07:38:54;;;;;;;;;;;5.00;99.90;;;;;;5044895;28;19924;-78
2021/12/16 07:41:32;;;;;;;;;;;5.00;99.90;;;;;;5040243;28;19932;-78
2021/12/16 07:44:12;;;;;;;;;;;5.00;99.90;;;;;;5039401;28;20038;-78
2021/12/16 07:46:41;;;;;;;;;;;5.10;99.90;;;;;;5039235;28;19939;-78
2021/12/16 07:49:09;;;;;;;;;;;5.10;99.90;;;;;;5032498;28;20213;-78
2021/12/16 07:51:35;;;;;;;;;;;5.10;99.90;;;;;;5039785;28;20315;-79
2021/12/16 07:54:03;;;;;;;;;;;5.10;99.90;;;;;;5039979;28;19924;-79
2021/12/16 07:56:30;;;;;;;;;;;5.10;99.90;;;;;;5029487;28;19936;-78
2021/12/16 07:58:56;;;;;;;;;;;5.10;99.90;;;;;;5047360;28;19925;-79
2021/12/16 08:01:26;;;;;;;;;;;5.10;99.90;;;;;;5045207;28;19931;-79
2021/12/16 08:03:53;;;;;;;;;;;5.10;99.90;;;;;;5043220;28;19983;-79
2021/12/16 08:06:24;;;;;;;;;;;5.10;99.90;;;;;;5039936;28;19925;-78
2021/12/16 08:08:52;;;;;;;;;;;5.00;99.90;;;;;;5039937;28;20403;-79
2021/12/16 08:11:19;;;;;;;;;;;5.00;99.90;;;;;;5036265;28;19925;-79
2021/12/16 08:13:45;;;;;;;;;;;5.00;99.90;;;;;;5043756;28;19931;-79
2021/12/16 08:16:12;;;;;;;;;;;5.00;99.90;;;;;;5063289;28;19929;-79
2021/12/16 08:18:42;;;;;;;;;;;5.00;99.90;;;;;;5031335;28;19939;-79
2021/12/16 08:21:12;;;;;;;;;;;4.90;99.90;;;;;;5044884;28;19937;-78
2021/12/16 08:23:39;;;;;;;;;;;4.80;99.90;;;;;;5044370;28;19929;-79
2021/12/16 08:26:06;;;;;;;;;;;4.80;99.90;;;;;;5043999;28;20390;-79
2021/12/16 08:28:33;;;;;;;;;;;4.70;99.90;;;;;;5046101;28;20410;-79
2021/12/16 08:31:05;;;;;;;;;;;4.70;99.90;;;;;;5039433;28;19998;-79
2021/12/16 08:33:32;;;;;;;;;;;4.70;99.90;;;;;;5045715;28;20004;-79
2021/12/16 08:35:59;;;;;;;;;;;4.80;99.90;;;;;;5041155;28;21392;-78
2021/12/16 08:38:26;;;;;;;;;;;4.90;99.90;;;;;;5036198;28;19925;-79
2021/12/16 08:40:55;;;;;;;;;;;4.90;99.90;;;;;;5042432;28;19924;-79
2021/12/16 08:43:22;;;;;;;;;;;5.00;99.90;;;;;;5043002;28;19951;-79
2021/12/16 08:45:53;;;;;;;;;;;5.10;99.90;;;;;;5039114;28;20303;-78
2021/12/16 08:48:20;;;;;;;;;;;5.30;99.90;;;;;;5040046;28;19987;-79
2021/12/16 08:50:49;;;;;;;;;;;5.50;99.90;;;;;;5047217;28;19935;-79
2021/12/16 08:53:18;;;;;;;;;;;5.90;99.90;;;;;;5040178;28;19942;-79
2021/12/16 08:55:45;;;;;;;;;;;6.30;99.90;;;;;;5037210;28;19921;-79
2021/12/16 08:58:12;;;;;;;;;;;6.60;99.90;;;;;;5042330;28;19964;-79
2021/12/16 09:00:41;;;;;;;;;;;6.90;99.90;;;;;;5041885;28;19931;-79
2021/12/16 09:03:09;;;;;;;;;;;6.90;99.90;;;;;;5044980;28;20016;-79
2021/12/16 09:05:36;;;;;;;;;;;6.80;99.90;;;;;;5046001;28;19928;-78
2021/12/16 09:08:04;;;;;;;;;;;6.70;99.90;;;;;;5038751;28;19921;-78
2021/12/16 09:10:33;;;;;;;;;;;6.60;99.90;;;;;;5059803;28;20023;-79
2021/12/16 09:13:04;;;;;;;;;;;6.50;99.90;;;;;;5046095;28;19943;-79
2021/12/16 09:15:37;;;;;;;;;;;6.40;99.90;;;;;;5046367;28;20011;-79
2021/12/16 09:18:04;;;;;;;;;;;6.50;99.90;;;;;;5044275;28;20023;-78
2021/12/16 09:20:33;;;;;;;;;;;6.80;99.90;;;;;;5046260;28;19956;-78
2021/12/16 09:23:02;;;;;;;;;;;7.00;99.90;;;;;;5042911;28;19927;-79
2021/12/16 09:25:28;;;;;;;;;;;7.20;99.90;;;;;;5045151;28;19970;-79
2021/12/16 09:27:55;;;;;;;;;;;7.20;99.90;;;;;;5045387;28;20368;-78
2021/12/16 09:30:24;;;;;;;;;;;7.20;99.90;;;;;;5045749;28;20323;-79
2021/12/16 09:32:52;;;;;;;;;;;7.30;99.90;;;;;;5045290;28;19943;-79
2021/12/16 09:35:21;;;;;;;;;;;7.40;99.90;;;;;;5046432;28;20031;-78
2021/12/16 09:37:48;;;;;;;;;;;7.30;99.90;;;;;;5044104;28;20142;-81
2021/12/16 09:40:18;;;;;;;;;;;7.20;99.90;;;;;;5047046;28;19963;-79
2021/12/16 09:42:45;;;;;;;;;;;7.00;99.90;;;;;;5046520;28;19921;-79
2021/12/16 09:45:15;;;;;;;;;;;6.90;99.90;;;;;;5044105;28;19921;-78
2021/12/16 09:47:44;;;;;;;;;;;6.80;99.90;;;;;;5039031;28;20306;-78
2021/12/16 09:50:12;;;;;;;;;;;6.80;99.90;;;;;;5040727;28;19951;-79
2021/12/16 09:52:42;;;;;;;;;;;6.70;99.90;;;;;;5047200;28;19946;-78
2021/12/16 09:55:09;;;;;;;;;;;6.90;99.90;;;;;;5045290;28;19931;-79
2021/12/16 09:57:36;;;;;;;;;;;7.50;99.90;;;;;;5049448;28;19926;-79
2021/12/16 10:00:09;;;;;;;;;;;9.00;99.90;;;;;;5047135;28;19927;-80
2021/12/16 10:02:38;;;;;;;;;;;10.30;99.90;;;;;;5050112;28;19928;-80
2021/12/16 10:05:06;;;;;;;;;;;10.70;99.90;;;;;;5047987;28;19925;-80
2021/12/16 10:07:34;;;;;;;;;;;10.40;99.90;;;;;;5047303;28;20011;-78
2021/12/16 10:10:06;;;;;;;;;;;9.70;99.90;;;;;;5047896;28;19971;-79
2021/12/16 10:12:37;;;;;;;;;;;9.30;99.90;;;;;;5047675;28;19920;-79
2021/12/16 10:17:57;;;;;;;;;;;9.00;99.90;;;;;;5042754;28;19925;-79
2021/12/16 10:20:29;;;;;;;;;;;9.90;99.90;;;;;;5055798;28;19921;-80
2021/12/16 10:23:19;;;;;;;;;;;10.80;99.90;;;;;;5045949;28;19921;-79
2021/12/16 10:26:06;;;;;;;;;;;11.00;99.90;;;;;;5044194;28;19928;-79
2021/12/16 10:28:35;;;;;;;;;;;10.70;99.90;;;;;;5036296;28;19936;-78
2021/12/16 10:31:04;;;;;;;;;;;10.00;99.90;;;;;;5040756;28;19983;-79
2021/12/16 10:33:37;;;;;;;;;;;9.80;99.90;;;;;;5045919;28;19924;-79
2021/12/16 10:36:07;;;;;;;;;;;9.70;99.90;;;;;;5045930;28;20517;-79
2021/12/16 10:38:35;;;;;;;;;;;10.10;99.90;;;;;;5041816;28;19964;-79
2021/12/16 10:41:03;;;;;;;;;;;10.20;99.90;;;;;;5043955;28;19921;-79
2021/12/16 10:43:41;;;;;;;;;;;10.40;99.90;;;;;;5044783;28;20115;-79
2021/12/16 10:46:09;;;;;;;;;;;10.90;99.90;;;;;;5043451;28;19954;-80
2021/12/16 10:48:56;;;;;;;;;;;11.20;99.90;;;;;;5044058;28;20298;-79
2021/12/16 10:51:33;;;;;;;;;;;11.20;99.90;;;;;;5056359;28;19928;-79
2021/12/16 10:54:11;;;;;;;;;;;11.30;99.90;;;;;;5045575;28;20391;-79
2021/12/16 10:56:38;;;;;;;;;;;11.60;99.90;;;;;;5030436;28;19935;-80
2021/12/16 10:59:05;;;;;;;;;;;12.20;99.90;;;;;;5037360;28;19927;-80
2021/12/16 11:01:41;;;;;;;;;;;12.70;99.90;;;;;;5046298;28;19927;-79
2021/12/16 11:04:28;;;;;;;;;;;12.80;99.90;;;;;;5038714;28;19929;-79
2021/12/16 11:07:01;;;;;;;;;;;12.20;99.90;;;;;;5046038;28;19925;-79
2021/12/16 11:09:30;;;;;;;;;;;11.70;99.90;;;;;;5054209;28;19931;-77
2021/12/16 11:12:12;;;;;;;;;;;11.40;99.90;;;;;;5053456;28;19920;-78
2021/12/16 11:14:39;;;;;;;;;;;11.20;99.90;;;;;;5057916;28;19995;-78
2021/12/16 11:17:08;;;;;;;;;;;10.90;99.90;;;;;;5057705;28;19921;-78
2021/12/16 11:19:45;;;;;;;;;;;10.70;99.90;;;;;;5055187;28;19921;-78
2021/12/16 11:22:15;;;;;;;;;;;10.30;99.90;;;;;;5048269;28;19940;-78
2021/12/16 11:24:42;;;;;;;;;;;9.90;99.90;;;;;;5048580;28;19935;-78
2021/12/16 11:27:24;;;;;;;;;;;9.80;99.90;;;;;;5044571;28;19927;-77
2021/12/16 11:29:55;;;;;;;;;;;9.60;99.90;;;;;;5036307;28;19921;-77
2021/12/16 11:32:33;;;;;;;;;;;9.60;99.90;;;;;;5044204;28;19960;-78
2021/12/16 11:35:00;;;;;;;;;;;9.50;99.90;;;;;;5037299;28;19927;-78
2021/12/16 11:37:27;;;;;;;;;;;9.40;99.90;;;;;;5045065;28;19921;-79
2021/12/16 11:39:53;;;;;;;;;;;9.30;99.90;;;;;;5039718;28;19999;-81
2021/12/16 11:42:29;;;;;;;;;;;9.20;99.90;;;;;;5042522;28;19920;-79
2021/12/16 11:44:57;;;;;;;;;;;9.20;99.90;;;;;;5038161;28;19925;-79
2021/12/16 11:47:25;;;;;;;;;;;9.00;99.90;;;;;;5038685;28;20129;-79
2021/12/16 11:50:04;;;;;;;;;;;9.00;99.90;;;;;;5043229;28;19935;-79
2021/12/16 11:52:36;;;;;;;;;;;9.00;99.90;;;;;;5041156;28;19920;-79
2021/12/16 11:55:13;;;;;;;;;;;9.00;99.90;;;;;;5044343;28;19925;-78
2021/12/16 11:57:48;;;;;;;;;;;9.10;99.90;;;;;;5043541;28;20019;-78
2021/12/16 12:00:18;;;;;;;;;;;9.10;99.90;;;;;;5042413;28;19925;-78
2021/12/16 12:02:46;;;;;;;;;;;9.10;99.90;;;;;;5033797;28;20291;-79
2021/12/16 12:05:19;;;;;;;;;;;9.10;99.90;;;;;;5047322;28;20033;-79
2021/12/16 12:07:51;;;;;;;;;;;9.20;99.90;;;;;;5044816;28;19935;-79
2021/12/16 12:10:39;;;;;;;;;;;9.10;99.90;;;;;;5041818;28;19972;-79
2021/12/16 12:13:14;;;;;;;;;;;9.10;99.90;;;;;;5042113;28;19920;-79
2021/12/16 12:15:52;;;;;;;;;;;9.10;99.90;;;;;;5043987;28;20003;-79
2021/12/16 12:18:33;;;;;;;;;;;9.10;99.90;;;;;;5041183;28;19925;-79
2021/12/16 12:21:20;;;;;;;;;;;9.00;99.90;;;;;;5041903;28;20015;-79
2021/12/16 12:23:49;;;;;;;;;;;9.10;99.90;;;;;;5041669;28;19925;-79
2021/12/16 12:26:17;;;;;;;;;;;9.10;99.90;;;;;;5033634;28;19982;-79
2021/12/16 12:28:44;;;;;;;;;;;9.00;99.90;;;;;;5039625;28;19928;-79
2021/12/16 12:31:12;;;;;;;;;;;9.00;99.90;;;;;;5044969;28;19927;-79
2021/12/16 12:33:39;;;;;;;;;;;8.90;99.90;;;;;;5046509;28;19924;-79
2021/12/16 12:36:08;;;;;;;;;;;8.90;99.90;;;;;;5045758;28;19924;-79
2021/12/16 12:38:37;;;;;;;;;;;8.90;99.90;;;;;;5036223;28;19920;-79
2021/12/16 12:41:04;;;;;;;;;;;8.90;99.90;;;;;;5044407;28;19924;-79
2021/12/16 12:43:33;;;;;;;;;;;9.00;99.90;;;;;;5042525;28;20280;-79
2021/12/16 12:46:01;;;;;;;;;;;9.10;99.90;;;;;;5036474;28;19947;-79
2021/12/16 12:48:32;;;;;;;;;;;8.90;99.90;;;;;;5040341;28;19929;-79
2021/12/16 12:50:59;;;;;;;;;;;8.90;99.90;;;;;;5043636;28;19920;-79
2021/12/16 12:53:34;;;;;;;;;;;8.90;99.90;;;;;;5043967;28;20298;-79
2021/12/16 12:56:27;;;;;;;;;;;8.90;99.90;;;;;;5043546;28;20003;-79
2021/12/16 12:58:58;;;;;;;;;;;8.80;99.90;;;;;;5043512;28;19943;-79
2021/12/16 13:01:40;;;;;;;;;;;8.80;99.90;;;;;;5042960;28;20019;-79
2021/12/16 13:04:12;;;;;;;;;;;8.80;99.90;;;;;;5038359;28;20383;-79
2021/12/16 13:06:53;;;;;;;;;;;8.80;99.90;;;;;;5044427;28;19925;-79
2021/12/16 13:09:22;;;;;;;;;;;8.80;99.90;;;;;;5037509;28;20027;-79
2021/12/16 13:11:49;;;;;;;;;;;8.90;99.90;;;;;;5041866;28;19927;-79
2021/12/16 13:14:37;;;;;;;;;;;9.00;99.90;;;;;;5037100;28;19921;-79
2021/12/16 13:28:22;;;;;;;;;;;9.00;99.90;;;;;;5037911;28;19927;-79
2021/12/16 13:30:58;;;;;;;;;;;9.00;99.90;;;;;;5041853;28;19920;-80
2021/12/16 13:33:40;;;;;;;;;;;9.10;99.90;;;;;;5045627;28;19931;-79
2021/12/16 13:36:26;;;;;;;;;;;9.10;99.90;;;;;;5036340;28;19921;-79
2021/12/16 13:38:54;;;;;;;;;;;9.20;99.90;;;;;;5042768;28;19942;-79
2021/12/16 13:41:22;;;;;;;;;;;9.20;99.90;;;;;;5041738;28;20130;-79
2021/12/16 13:43:58;;;;;;;;;;;9.10;99.90;;;;;;5044715;28;19925;-79
2021/12/16 13:46:44;;;;;;;;;;;9.00;99.90;;;;;;5044842;28;19951;-80
2021/12/16 14:03:08;;;;;;;;;;;8.90;99.90;;;;;;5043717;28;19920;-80
2021/12/16 14:05:43;;;;;;;;;;;8.90;99.90;;;;;;5041278;28;20268;-79
2021/12/16 14:08:12;;;;;;;;;;;8.90;99.90;;;;;;5046408;28;19921;-79
2021/12/16 14:10:46;;;;;;;;;;;8.90;99.90;;;;;;5037726;28;19967;-79
2021/12/16 14:16:16;;;;;;;;;;;8.90;99.90;;;;;;5043321;28;19924;-79
2021/12/16 14:24:56;;;;;;;;;;;8.80;99.90;;;;;;5044507;28;19970;-79
2021/12/16 14:35:49;;;;;;;;;;;8.60;99.90;;;;;;5047044;28;19983;-79
2021/12/16 14:46:28;;;;;;;;;;;8.40;99.90;;;;;;5045133;28;19924;-79
2021/12/16 14:48:55;;;;;;;;;;;8.40;99.90;;;;;;5045644;28;20041;-79
2021/12/16 14:51:22;;;;;;;;;;;8.30;99.90;;;;;;5048663;28;20216;-79
2021/12/16 14:53:54;;;;;;;;;;;8.30;99.90;;;;;;5047996;28;19931;-79
2021/12/16 14:56:28;;;;;;;;;;;8.30;99.90;;;;;;5056539;28;19927;-79
2021/12/16 14:58:57;;;;;;;;;;;8.20;99.90;;;;;;5059237;28;19924;-79
2021/12/16 15:01:27;;;;;;;;;;;8.10;99.90;;;;;;5043435;28;19924;-79
2021/12/16 15:03:54;;;;;;;;;;;8.00;99.90;;;;;;5046130;28;20374;-80
2021/12/16 15:06:27;;;;;;;;;;;8.00;99.90;;;;;;5043297;28;19920;-79
2021/12/16 15:12:05;;;;;;;;;;;8.00;99.90;;;;;;5044254;28;19920;-79
2021/12/16 15:14:36;;;;;;;;;;;8.00;99.90;;;;;;5051492;28;19927;-79
2021/12/16 15:17:20;;;;;;;;;;;7.90;99.90;;;;;;5042734;28;19964;-79
2021/12/16 15:37:04;;;;;;;;;;;7.80;99.90;;;;;;5047157;28;20063;-79
2021/12/16 15:44:56;;;;;;;;;;;7.70;99.90;;;;;;5037419;28;20008;-80
2021/12/16 15:47:23;;;;;;;;;;;7.70;99.90;;;;;;5046339;28;19925;-80
2021/12/16 15:49:50;;;;;;;;;;;7.70;99.90;;;;;;5042406;28;19925;-77
2021/12/16 15:52:17;;;;;;;;;;;7.70;99.90;;;;;;5041088;28;19920;-80
2021/12/16 15:54:49;;;;;;;;;;;7.70;99.90;;;;;;5041585;28;19921;-80
2021/12/16 15:57:17;;;;;;;;;;;7.70;99.90;;;;;;5045407;28;20011;-80
2021/12/16 15:59:53;;;;;;;;;;;7.70;99.90;;;;;;5045614;28;19947;-80
2021/12/16 16:02:20;;;;;;;;;;;7.70;99.90;;;;;;5045940;28;19986;-80
2021/12/16 16:04:48;;;;;;;;;;;7.60;99.90;;;;;;5039471;28;19924;-78
2021/12/16 16:07:16;;;;;;;;;;;7.60;99.90;;;;;;5040124;28;20385;-78
2021/12/16 16:09:49;;;;;;;;;;;7.60;99.90;;;;;;5044496;28;20022;-78
2021/12/16 16:12:17;;;;;;;;;;;7.60;99.90;;;;;;5045703;28;20403;-78
2021/12/16 16:14:49;;;;;;;;;;;7.50;99.90;;;;;;5046375;28;19947;-78
2021/12/16 16:17:19;;;;;;;;;;;7.40;99.90;;;;;;5045461;28;19921;-78
2021/12/16 16:19:47;;;;;;;;;;;7.40;99.90;;;;;;5037507;28;20451;-78
2021/12/16 16:22:14;;;;;;;;;;;7.40;99.90;;;;;;5045246;28;19920;-78
2021/12/16 16:24:47;;;;;;;;;;;7.30;99.90;;;;;;5041156;28;19921;-78
2021/12/16 16:27:20;;;;;;;;;;;7.30;99.90;;;;;;5046256;28;20359;-79
2021/12/16 16:29:48;;;;;;;;;;;7.20;99.90;;;;;;5047583;28;20023;-78
2021/12/16 16:32:15;;;;;;;;;;;7.20;99.90;;;;;;5045995;28;19928;-79
2021/12/16 16:34:46;;;;;;;;;;;7.20;99.90;;;;;;5046269;28;20015;-79
2021/12/16 16:37:19;;;;;;;;;;;7.20;99.90;;;;;;5045048;28;20386;-78
2021/12/16 16:39:50;;;;;;;;;;;7.20;99.90;;;;;;5045146;28;20011;-78
2021/12/16 16:42:17;;;;;;;;;;;7.20;99.90;;;;;;5047563;28;20017;-78
2021/12/16 16:44:52;;;;;;;;;;;7.20;99.90;;;;;;5041137;28;19972;-78
2021/12/16 16:47:46;;;;;;;;;;;7.20;99.90;;;;;;5050988;28;19927;-78
2021/12/16 16:50:14;;;;;;;;;;;7.20;99.90;;;;;;5041874;28;19924;-78
2021/12/16 16:52:45;;;;;;;;;;;7.20;99.90;;;;;;5031236;28;23423;-78
2021/12/16 16:55:11;;;;;;;;;;;7.20;99.90;;;;;;5047225;28;19976;-79
2021/12/16 16:57:47;;;;;;;;;;;7.20;99.90;;;;;;5042903;28;19995;-79
2021/12/16 17:00:16;;;;;;;;;;;7.20;99.90;;;;;;5046308;28;19932;-78
2021/12/16 17:02:50;;;;;;;;;;;7.20;99.90;;;;;;5047637;28;19980;-78
2021/12/16 17:05:20;;;;;;;;;;;7.10;99.90;;;;;;5051001;28;20455;-78
2021/12/16 17:07:46;;;;;;;;;;;7.10;99.90;;;;;;5048550;28;19925;-79
2021/12/16 17:10:31;;;;;;;;;;;7.10;99.90;;;;;;5049290;28;20399;-78
2021/12/16 17:13:02;;;;;;;;;;;7.10;99.90;;;;;;5044895;28;19933;-78
2021/12/16 17:15:39;;;;;;;;;;;7.10;99.90;;;;;;5047932;28;20007;-78
2021/12/16 17:18:13;;;;;;;;;;;7.10;99.90;;;;;;5046809;28;20481;-78
2021/12/16 17:20:40;;;;;;;;;;;7.00;99.90;;;;;;5049845;28;20378;-78
2021/12/16 17:23:12;;;;;;;;;;;7.00;99.90;;;;;;5051158;28;20027;-78
2021/12/16 17:25:39;;;;;;;;;;;7.00;99.90;;;;;;5048035;28;19924;-79
2021/12/16 17:28:06;;;;;;;;;;;6.90;99.90;;;;;;5047820;28;19925;-79
2021/12/16 17:30:35;;;;;;;;;;;7.00;99.90;;;;;;5048527;28;20015;-78
2021/12/16 17:33:02;;;;;;;;;;;7.00;99.90;;;;;;5051502;28;19946;-78
2021/12/16 17:35:36;;;;;;;;;;;7.00;99.90;;;;;;5051443;28;19936;-78
2021/12/16 17:38:10;;;;;;;;;;;7.00;99.90;;;;;;5048600;28;19925;-79
2021/12/16 17:40:44;;;;;;;;;;;7.00;99.90;;;;;;5055489;28;19931;-78
2021/12/16 17:43:15;;;;;;;;;;;7.10;99.90;;;;;;5043389;28;20279;-78
2021/12/16 17:45:44;;;;;;;;;;;7.10;99.90;;;;;;5043993;28;20376;-78
2021/12/16 17:48:12;;;;;;;;;;;7.10;99.90;;;;;;5046923;28;19929;-79
2021/12/16 17:50:43;;;;;;;;;;;7.10;99.90;;;;;;5050696;28;19928;-80
2021/12/16 17:53:10;;;;;;;;;;;7.10;99.90;;;;;;5047745;28;19935;-79
2021/12/16 17:55:39;;;;;;;;;;;7.10;99.90;;;;;;5047823;28;19933;-78
2021/12/16 17:58:10;;;;;;;;;;;7.20;99.90;;;;;;5048410;28;19935;-78
2021/12/16 18:00:41;;;;;;;;;;;7.20;99.90;;;;;;5054724;28;19932;-78
2021/12/16 18:03:16;;;;;;;;;;;7.20;99.90;;;;;;5046935;28;19975;-78
2021/12/16 18:05:47;;;;;;;;;;;7.20;99.90;;;;;;5045000;28;19935;-78
2021/12/16 18:08:40;;;;;;;;;;;7.20;99.90;;;;;;5050051;28;20374;-79
2021/12/16 18:11:09;;;;;;;;;;;7.20;99.90;;;;;;5049507;28;19990;-78
2021/12/16 18:13:44;;;;;;;;;;;7.20;99.90;;;;;;5050961;28;20371;-78
2021/12/16 18:16:15;;;;;;;;;;;7.20;99.90;;;;;;5048506;28;19932;-78
2021/12/16 18:18:45;;;;;;;;;;;7.30;99.90;;;;;;5047333;28;19935;-78
2021/12/16 18:21:12;;;;;;;;;;;7.30;99.90;;;;;;5047547;28;20019;-78
2021/12/16 18:23:43;;;;;;;;;;;7.20;99.90;;;;;;5041695;28;20024;-78
2021/12/16 18:26:10;;;;;;;;;;;7.20;99.90;;;;;;5044757;28;19925;-78
2021/12/16 18:28:38;;;;;;;;;;;7.20;99.90;;;;;;5044174;28;19932;-79
2021/12/16 18:31:11;;;;;;;;;;;7.20;99.90;;;;;;5054736;28;20337;-79
2021/12/16 18:33:40;;;;;;;;;;;7.20;99.90;;;;;;5047512;28;19955;-79